Daviess County (DCY)

 

Airport Diagram
No Airport Diagram Available
Current Weather/Forecast (VFR Conditions)
METAR KDCY 071255Z AUTO 22004KT 10SM CLR 11/04 A3008 RMK AO2 T01070039
TAF

Airport Information

All Charts
General
Chart Name View
TAKEOFF MINIMUMS
ALTERNATE MINIMUMS

Approaches
Chart Name Download
RNAV (GPS) RWY 18


Airport Statistics
Departures Arrivals Local
All Collected Stats since June 2016: 9 8 0
2021 Stats: 3 3 0
May Stats: 0 0 0

Inbound Traffic (Arrivals) - 0

No inbound traffic.


Outbound Traffic (Departures) - 0

No outbound traffic.


Local Traffic (Pattern) - 0

No local traffic.